sensor_id;sensor_type;location;lat;lon;timestamp;temperature;humidity
16198;DHT22;8206;51.440;6.914;2023-03-19T00:02:19;10.50;99.90
16198;DHT22;8206;51.440;6.914;2023-03-19T00:04:47;10.50;99.90
16198;DHT22;8206;51.440;6.914;2023-03-19T00:07:14;10.50;99.90
16198;DHT22;8206;51.440;6.914;2023-03-19T00:09:41;10.50;99.90
16198;DHT22;8206;51.440;6.914;2023-03-19T00:12:09;10.60;99.90
16198;DHT22;8206;51.440;6.914;2023-03-19T00:14:36;10.60;99.90
16198;DHT22;8206;51.440;6.914;2023-03-19T00:17:03;10.60;99.90
16198;DHT22;8206;51.440;6.914;2023-03-19T00:19:30;10.60;99.90
16198;DHT22;8206;51.440;6.914;2023-03-19T00:21:58;10.60;99.90
16198;DHT22;8206;51.440;6.914;2023-03-19T00:24:24;10.60;99.90
16198;DHT22;8206;51.440;6.914;2023-03-19T00:26:51;10.50;99.90
16198;DHT22;8206;51.440;6.914;2023-03-19T00:29:18;10.50;99.90
16198;DHT22;8206;51.440;6.914;2023-03-19T00:31:45;10.50;99.90
16198;DHT22;8206;51.440;6.914;2023-03-19T00:34:12;10.50;99.90
16198;DHT22;8206;51.440;6.914;2023-03-19T00:36:39;10.60;99.90
16198;DHT22;8206;51.440;6.914;2023-03-19T00:39:07;10.60;99.90
16198;DHT22;8206;51.440;6.914;2023-03-19T00:41:34;10.60;99.90
16198;DHT22;8206;51.440;6.914;2023-03-19T00:44:01;10.70;99.90
16198;DHT22;8206;51.440;6.914;2023-03-19T00:46:28;10.70;99.90
16198;DHT22;8206;51.440;6.914;2023-03-19T00:48:55;10.70;99.90
16198;DHT22;8206;51.440;6.914;2023-03-19T00:51:23;10.60;99.90
16198;DHT22;8206;51.440;6.914;2023-03-19T00:53:51;10.60;99.90
16198;DHT22;8206;51.440;6.914;2023-03-19T00:56:19;10.50;99.90
16198;DHT22;8206;51.440;6.914;2023-03-19T00:58:46;10.50;99.90
16198;DHT22;8206;51.440;6.914;2023-03-19T01:01:15;10.40;99.90
16198;DHT22;8206;51.440;6.914;2023-03-19T01:03:43;10.30;99.90
16198;DHT22;8206;51.440;6.914;2023-03-19T01:06:10;10.30;99.90
16198;DHT22;8206;51.440;6.914;2023-03-19T01:08:37;10.20;99.90
16198;DHT22;8206;51.440;6.914;2023-03-19T01:11:05;10.20;99.90
16198;DHT22;8206;51.440;6.914;2023-03-19T01:13:34;10.20;99.90
16198;DHT22;8206;51.440;6.914;2023-03-19T01:16:01;10.10;99.90
16198;DHT22;8206;51.440;6.914;2023-03-19T01:18:28;10.10;99.90
16198;DHT22;8206;51.440;6.914;2023-03-19T01:20:55;10.00;99.90
16198;DHT22;8206;51.440;6.914;2023-03-19T01:23:22;9.90;99.90
16198;DHT22;8206;51.440;6.914;2023-03-19T01:25:49;9.80;99.90
16198;DHT22;8206;51.440;6.914;2023-03-19T01:28:16;9.70;99.90
16198;DHT22;8206;51.440;6.914;2023-03-19T01:30:44;9.60;99.90
16198;DHT22;8206;51.440;6.914;2023-03-19T01:33:11;9.50;99.90
16198;DHT22;8206;51.440;6.914;2023-03-19T01:35:38;9.40;99.90
16198;DHT22;8206;51.440;6.914;2023-03-19T01:38:04;9.40;99.90
16198;DHT22;8206;51.440;6.914;2023-03-19T01:40:32;9.30;99.90
16198;DHT22;8206;51.440;6.914;2023-03-19T01:43:13;9.30;99.90
16198;DHT22;8206;51.440;6.914;2023-03-19T01:45:44;9.40;99.90
16198;DHT22;8206;51.440;6.914;2023-03-19T01:48:24;9.30;99.90
16198;DHT22;8206;51.440;6.914;2023-03-19T01:50:52;9.40;99.90
16198;DHT22;8206;51.440;6.914;2023-03-19T01:53:23;9.40;99.90
16198;DHT22;8206;51.440;6.914;2023-03-19T01:55:51;9.50;99.90
16198;DHT22;8206;51.440;6.914;2023-03-19T01:58:20;9.50;99.90
16198;DHT22;8206;51.440;6.914;2023-03-19T02:00:48;9.60;99.90
16198;DHT22;8206;51.440;6.914;2023-03-19T02:03:15;9.60;99.90
16198;DHT22;8206;51.440;6.914;2023-03-19T02:05:43;9.70;99.90
16198;DHT22;8206;51.440;6.914;2023-03-19T02:08:13;9.70;99.90
16198;DHT22;8206;51.440;6.914;2023-03-19T02:10:41;9.80;99.90
16198;DHT22;8206;51.440;6.914;2023-03-19T02:13:08;9.80;99.90
16198;DHT22;8206;51.440;6.914;2023-03-19T02:15:36;9.80;99.90
16198;DHT22;8206;51.440;6.914;2023-03-19T02:18:04;9.90;99.90
16198;DHT22;8206;51.440;6.914;2023-03-19T02:20:36;9.90;99.90
16198;DHT22;8206;51.440;6.914;2023-03-19T02:23:13;9.90;99.90
16198;DHT22;8206;51.440;6.914;2023-03-19T02:26:06;9.90;99.90
16198;DHT22;8206;51.440;6.914;2023-03-19T02:28:36;10.00;99.90
16198;DHT22;8206;51.440;6.914;2023-03-19T02:31:04;10.00;99.90
16198;DHT22;8206;51.440;6.914;2023-03-19T02:33:31;10.00;99.90
16198;DHT22;8206;51.440;6.914;2023-03-19T02:35:59;10.10;99.90
16198;DHT22;8206;51.440;6.914;2023-03-19T02:38:29;10.10;99.90
16198;DHT22;8206;51.440;6.914;2023-03-19T02:41:00;10.00;99.90
16198;DHT22;8206;51.440;6.914;2023-03-19T02:43:31;10.00;99.90
16198;DHT22;8206;51.440;6.914;2023-03-19T02:45:58;10.00;99.90
16198;DHT22;8206;51.440;6.914;2023-03-19T02:48:25;10.00;99.90
16198;DHT22;8206;51.440;6.914;2023-03-19T02:50:52;10.10;99.90
16198;DHT22;8206;51.440;6.914;2023-03-19T02:53:19;10.10;99.90
16198;DHT22;8206;51.440;6.914;2023-03-19T02:55:45;10.10;99.90
16198;DHT22;8206;51.440;6.914;2023-03-19T02:58:12;10.10;99.90
16198;DHT22;8206;51.440;6.914;2023-03-19T03:00:40;10.10;99.90
16198;DHT22;8206;51.440;6.914;2023-03-19T03:03:07;10.10;99.90
16198;DHT22;8206;51.440;6.914;2023-03-19T03:05:35;10.10;99.90
16198;DHT22;8206;51.440;6.914;2023-03-19T03:08:02;10.10;99.90
16198;DHT22;8206;51.440;6.914;2023-03-19T03:10:29;10.10;99.90
16198;DHT22;8206;51.440;6.914;2023-03-19T03:12:56;10.00;99.90
16198;DHT22;8206;51.440;6.914;2023-03-19T03:15:23;10.10;99.90
16198;DHT22;8206;51.440;6.914;2023-03-19T03:17:51;10.00;99.90
16198;DHT22;8206;51.440;6.914;2023-03-19T03:20:18;10.00;99.90
16198;DHT22;8206;51.440;6.914;2023-03-19T03:22:45;10.00;99.90
16198;DHT22;8206;51.440;6.914;2023-03-19T03:25:13;10.00;99.90
16198;DHT22;8206;51.440;6.914;2023-03-19T03:27:40;9.90;99.90
16198;DHT22;8206;51.440;6.914;2023-03-19T03:30:08;10.00;99.90
16198;DHT22;8206;51.440;6.914;2023-03-19T03:32:35;10.00;99.90
16198;DHT22;8206;51.440;6.914;2023-03-19T03:35:04;10.00;99.90
16198;DHT22;8206;51.440;6.914;2023-03-19T03:37:31;10.10;99.90
16198;DHT22;8206;51.440;6.914;2023-03-19T03:39:58;10.10;99.90
16198;DHT22;8206;51.440;6.914;2023-03-19T03:42:24;10.10;99.90
16198;DHT22;8206;51.440;6.914;2023-03-19T03:44:51;10.10;99.90
16198;DHT22;8206;51.440;6.914;2023-03-19T03:47:18;10.10;99.90
16198;DHT22;8206;51.440;6.914;2023-03-19T03:49:45;10.10;99.90
16198;DHT22;8206;51.440;6.914;2023-03-19T03:52:13;10.10;99.90
16198;DHT22;8206;51.440;6.914;2023-03-19T03:54:39;10.10;99.90
16198;DHT22;8206;51.440;6.914;2023-03-19T03:57:06;10.10;99.90
16198;DHT22;8206;51.440;6.914;2023-03-19T03:59:33;10.10;99.90
16198;DHT22;8206;51.440;6.914;2023-03-19T04:02:00;10.20;99.90
16198;DHT22;8206;51.440;6.914;2023-03-19T04:04:27;10.20;99.90
16198;DHT22;8206;51.440;6.914;2023-03-19T04:06:54;10.20;99.90
16198;DHT22;8206;51.440;6.914;2023-03-19T04:09:22;10.30;99.90
16198;DHT22;8206;51.440;6.914;2023-03-19T04:11:49;10.30;99.90
16198;DHT22;8206;51.440;6.914;2023-03-19T04:14:16;10.30;99.90
16198;DHT22;8206;51.440;6.914;2023-03-19T04:16:42;10.30;99.90
16198;DHT22;8206;51.440;6.914;2023-03-19T04:19:09;10.30;99.90
16198;DHT22;8206;51.440;6.914;2023-03-19T04:21:36;10.40;99.90
16198;DHT22;8206;51.440;6.914;2023-03-19T04:24:03;10.40;99.90
16198;DHT22;8206;51.440;6.914;2023-03-19T04:26:31;10.50;99.90
16198;DHT22;8206;51.440;6.914;2023-03-19T04:28:58;10.40;99.90
16198;DHT22;8206;51.440;6.914;2023-03-19T04:31:24;10.50;99.90
16198;DHT22;8206;51.440;6.914;2023-03-19T04:33:51;10.40;99.90
16198;DHT22;8206;51.440;6.914;2023-03-19T04:36:18;10.50;99.90
16198;DHT22;8206;51.440;6.914;2023-03-19T04:38:45;10.50;99.90
16198;DHT22;8206;51.440;6.914;2023-03-19T04:41:12;10.40;99.90
16198;DHT22;8206;51.440;6.914;2023-03-19T04:43:41;10.50;99.90
16198;DHT22;8206;51.440;6.914;2023-03-19T04:46:08;10.50;99.90
16198;DHT22;8206;51.440;6.914;2023-03-19T04:48:34;10.50;99.90
16198;DHT22;8206;51.440;6.914;2023-03-19T04:51:02;10.50;99.90
16198;DHT22;8206;51.440;6.914;2023-03-19T04:53:29;10.50;99.90
16198;DHT22;8206;51.440;6.914;2023-03-19T04:55:57;10.60;99.90
16198;DHT22;8206;51.440;6.914;2023-03-19T04:58:24;10.60;99.90
16198;DHT22;8206;51.440;6.914;2023-03-19T05:00:52;10.70;99.90
16198;DHT22;8206;51.440;6.914;2023-03-19T05:03:18;10.70;99.90
16198;DHT22;8206;51.440;6.914;2023-03-19T05:05:46;10.70;99.90
16198;DHT22;8206;51.440;6.914;2023-03-19T05:08:12;10.70;99.90
16198;DHT22;8206;51.440;6.914;2023-03-19T05:10:39;10.60;99.90
16198;DHT22;8206;51.440;6.914;2023-03-19T05:13:06;10.70;99.90
16198;DHT22;8206;51.440;6.914;2023-03-19T05:15:33;10.60;99.90
16198;DHT22;8206;51.440;6.914;2023-03-19T05:18:01;10.60;99.90
16198;DHT22;8206;51.440;6.914;2023-03-19T05:20:27;10.60;99.90
16198;DHT22;8206;51.440;6.914;2023-03-19T05:22:54;10.70;99.90
16198;DHT22;8206;51.440;6.914;2023-03-19T05:25:21;10.70;99.90
16198;DHT22;8206;51.440;6.914;2023-03-19T05:27:48;10.70;99.90
16198;DHT22;8206;51.440;6.914;2023-03-19T05:30:15;10.70;99.90
16198;DHT22;8206;51.440;6.914;2023-03-19T05:32:42;10.70;99.90
16198;DHT22;8206;51.440;6.914;2023-03-19T05:35:12;10.70;99.90
16198;DHT22;8206;51.440;6.914;2023-03-19T05:37:39;10.80;99.90
16198;DHT22;8206;51.440;6.914;2023-03-19T05:40:06;10.70;99.90
16198;DHT22;8206;51.440;6.914;2023-03-19T05:42:33;10.70;99.90
16198;DHT22;8206;51.440;6.914;2023-03-19T05:45:00;10.70;99.90
16198;DHT22;8206;51.440;6.914;2023-03-19T05:47:26;10.70;99.90
16198;DHT22;8206;51.440;6.914;2023-03-19T05:49:53;10.70;99.90
16198;DHT22;8206;51.440;6.914;2023-03-19T05:52:22;10.80;99.90
16198;DHT22;8206;51.440;6.914;2023-03-19T05:54:48;10.80;99.90
16198;DHT22;8206;51.440;6.914;2023-03-19T05:57:15;10.70;99.90
16198;DHT22;8206;51.440;6.914;2023-03-19T05:59:42;10.60;99.90
16198;DHT22;8206;51.440;6.914;2023-03-19T06:02:09;10.50;99.90
16198;DHT22;8206;51.440;6.914;2023-03-19T06:04:35;10.50;99.90
16198;DHT22;8206;51.440;6.914;2023-03-19T06:07:02;10.50;99.90
16198;DHT22;8206;51.440;6.914;2023-03-19T06:09:31;10.50;99.90
16198;DHT22;8206;51.440;6.914;2023-03-19T06:11:57;10.50;99.90
16198;DHT22;8206;51.440;6.914;2023-03-19T06:14:24;10.50;99.90
16198;DHT22;8206;51.440;6.914;2023-03-19T06:16:51;10.50;99.90
16198;DHT22;8206;51.440;6.914;2023-03-19T06:19:18;10.60;99.90
16198;DHT22;8206;51.440;6.914;2023-03-19T06:21:45;10.50;99.90
16198;DHT22;8206;51.440;6.914;2023-03-19T06:24:12;10.60;99.90
16198;DHT22;8206;51.440;6.914;2023-03-19T06:26:40;10.60;99.90
16198;DHT22;8206;51.440;6.914;2023-03-19T06:29:06;10.60;99.90
16198;DHT22;8206;51.440;6.914;2023-03-19T06:31:33;10.70;99.90
16198;DHT22;8206;51.440;6.914;2023-03-19T06:34:00;10.70;99.90
16198;DHT22;8206;51.440;6.914;2023-03-19T06:36:27;10.80;99.90
16198;DHT22;8206;51.440;6.914;2023-03-19T06:38:54;10.80;99.90
16198;DHT22;8206;51.440;6.914;2023-03-19T06:41:21;10.90;99.90
16198;DHT22;8206;51.440;6.914;2023-03-19T06:43:50;10.90;99.90
16198;DHT22;8206;51.440;6.914;2023-03-19T06:46:17;10.90;99.90
16198;DHT22;8206;51.440;6.914;2023-03-19T06:48:44;10.90;99.90
16198;DHT22;8206;51.440;6.914;2023-03-19T06:51:10;10.90;99.90
16198;DHT22;8206;51.440;6.914;2023-03-19T06:53:37;10.90;99.90
16198;DHT22;8206;51.440;6.914;2023-03-19T06:56:04;10.90;99.90
16198;DHT22;8206;51.440;6.914;2023-03-19T06:58:31;10.90;99.90
16198;DHT22;8206;51.440;6.914;2023-03-19T07:00:59;11.00;99.90
16198;DHT22;8206;51.440;6.914;2023-03-19T07:03:25;11.00;99.90
16198;DHT22;8206;51.440;6.914;2023-03-19T07:05:52;10.90;99.90
16198;DHT22;8206;51.440;6.914;2023-03-19T07:08:19;11.00;99.90
16198;DHT22;8206;51.440;6.914;2023-03-19T07:10:46;10.90;99.90
16198;DHT22;8206;51.440;6.914;2023-03-19T07:13:12;11.00;99.90
16198;DHT22;8206;51.440;6.914;2023-03-19T07:15:39;11.00;99.90
16198;DHT22;8206;51.440;6.914;2023-03-19T07:18:07;11.10;99.90
16198;DHT22;8206;51.440;6.914;2023-03-19T07:20:34;11.10;99.90
16198;DHT22;8206;51.440;6.914;2023-03-19T07:23:01;11.20;99.90
16198;DHT22;8206;51.440;6.914;2023-03-19T07:25:27;11.10;99.90
16198;DHT22;8206;51.440;6.914;2023-03-19T07:27:54;11.10;99.90
16198;DHT22;8206;51.440;6.914;2023-03-19T07:30:21;11.10;99.90
16198;DHT22;8206;51.440;6.914;2023-03-19T07:32:48;11.10;99.90
16198;DHT22;8206;51.440;6.914;2023-03-19T07:35:16;11.10;99.90
16198;DHT22;8206;51.440;6.914;2023-03-19T07:37:43;11.20;99.90
16198;DHT22;8206;51.440;6.914;2023-03-19T07:40:10;11.30;99.90
16198;DHT22;8206;51.440;6.914;2023-03-19T07:42:37;11.40;99.90
16198;DHT22;8206;51.440;6.914;2023-03-19T07:45:05;11.50;99.90
16198;DHT22;8206;51.440;6.914;2023-03-19T07:47:31;11.60;99.90
16198;DHT22;8206;51.440;6.914;2023-03-19T07:49:58;11.60;99.90
16198;DHT22;8206;51.440;6.914;2023-03-19T07:52:26;11.80;99.90
16198;DHT22;8206;51.440;6.914;2023-03-19T07:54:53;12.00;99.90
16198;DHT22;8206;51.440;6.914;2023-03-19T07:57:20;12.20;99.90
16198;DHT22;8206;51.440;6.914;2023-03-19T07:59:47;12.30;99.90
16198;DHT22;8206;51.440;6.914;2023-03-19T08:02:14;12.10;99.90
16198;DHT22;8206;51.440;6.914;2023-03-19T08:04:40;12.10;99.90
16198;DHT22;8206;51.440;6.914;2023-03-19T08:07:07;12.00;99.90
16198;DHT22;8206;51.440;6.914;2023-03-19T08:09:38;12.00;99.90
16198;DHT22;8206;51.440;6.914;2023-03-19T08:12:06;12.00;99.90
16198;DHT22;8206;51.440;6.914;2023-03-19T08:14:33;12.00;99.90
16198;DHT22;8206;51.440;6.914;2023-03-19T08:17:00;12.10;99.90
16198;DHT22;8206;51.440;6.914;2023-03-19T08:19:26;12.20;99.90
16198;DHT22;8206;51.440;6.914;2023-03-19T08:21:53;12.20;99.90
16198;DHT22;8206;51.440;6.914;2023-03-19T08:24:20;12.10;99.90
16198;DHT22;8206;51.440;6.914;2023-03-19T08:26:48;12.00;99.90
16198;DHT22;8206;51.440;6.914;2023-03-19T08:29:15;11.90;99.90
16198;DHT22;8206;51.440;6.914;2023-03-19T08:31:42;11.90;99.90
16198;DHT22;8206;51.440;6.914;2023-03-19T08:34:09;11.90;99.90
16198;DHT22;8206;51.440;6.914;2023-03-19T08:36:35;12.00;99.90
16198;DHT22;8206;51.440;6.914;2023-03-19T08:39:03;12.00;99.90
16198;DHT22;8206;51.440;6.914;2023-03-19T08:41:29;12.10;99.90
16198;DHT22;8206;51.440;6.914;2023-03-19T08:43:57;12.20;99.90
16198;DHT22;8206;51.440;6.914;2023-03-19T08:46:25;12.40;99.90
16198;DHT22;8206;51.440;6.914;2023-03-19T08:48:52;12.70;99.90
16198;DHT22;8206;51.440;6.914;2023-03-19T08:51:18;12.80;99.90
16198;DHT22;8206;51.440;6.914;2023-03-19T08:53:45;13.30;99.90
16198;DHT22;8206;51.440;6.914;2023-03-19T08:56:12;13.60;99.90
16198;DHT22;8206;51.440;6.914;2023-03-19T08:58:39;13.80;99.90
16198;DHT22;8206;51.440;6.914;2023-03-19T09:01:10;14.00;99.90
16198;DHT22;8206;51.440;6.914;2023-03-19T09:03:39;14.00;99.90
16198;DHT22;8206;51.440;6.914;2023-03-19T09:06:08;14.10;99.90
16198;DHT22;8206;51.440;6.914;2023-03-19T09:08:36;14.10;99.90
16198;DHT22;8206;51.440;6.914;2023-03-19T09:11:03;14.20;99.90
16198;DHT22;8206;51.440;6.914;2023-03-19T09:13:31;14.30;99.90
16198;DHT22;8206;51.440;6.914;2023-03-19T09:15:57;14.50;99.90
16198;DHT22;8206;51.440;6.914;2023-03-19T09:18:26;14.70;99.90
16198;DHT22;8206;51.440;6.914;2023-03-19T09:20:53;14.80;99.90
16198;DHT22;8206;51.440;6.914;2023-03-19T09:23:20;14.70;99.90
16198;DHT22;8206;51.440;6.914;2023-03-19T09:25:47;15.00;99.90
16198;DHT22;8206;51.440;6.914;2023-03-19T09:28:14;15.10;99.90
16198;DHT22;8206;51.440;6.914;2023-03-19T09:30:40;15.20;99.90
16198;DHT22;8206;51.440;6.914;2023-03-19T09:33:07;15.10;99.90
16198;DHT22;8206;51.440;6.914;2023-03-19T09:35:35;15.10;99.90
16198;DHT22;8206;51.440;6.914;2023-03-19T09:38:04;15.10;99.90
16198;DHT22;8206;51.440;6.914;2023-03-19T09:40:35;15.00;99.90
16198;DHT22;8206;51.440;6.914;2023-03-19T09:43:16;15.00;99.90
16198;DHT22;8206;51.440;6.914;2023-03-19T09:45:46;15.10;99.90
16198;DHT22;8206;51.440;6.914;2023-03-19T09:48:17;15.30;99.90
16198;DHT22;8206;51.440;6.914;2023-03-19T09:50:47;15.20;99.90
16198;DHT22;8206;51.440;6.914;2023-03-19T09:53:22;14.80;99.90
16198;DHT22;8206;51.440;6.914;2023-03-19T09:55:50;14.60;99.90
16198;DHT22;8206;51.440;6.914;2023-03-19T09:58:19;14.30;99.90
16198;DHT22;8206;51.440;6.914;2023-03-19T10:00:48;14.30;99.90
16198;DHT22;8206;51.440;6.914;2023-03-19T10:03:31;14.40;99.90
16198;DHT22;8206;51.440;6.914;2023-03-19T10:06:12;14.70;99.90
16198;DHT22;8206;51.440;6.914;2023-03-19T10:08:52;15.00;99.90
16198;DHT22;8206;51.440;6.914;2023-03-19T10:11:34;15.00;99.90
16198;DHT22;8206;51.440;6.914;2023-03-19T10:14:16;15.00;99.90
16198;DHT22;8206;51.440;6.914;2023-03-19T10:16:50;14.90;99.90
16198;DHT22;8206;51.440;6.914;2023-03-19T10:19:21;14.50;99.90
16198;DHT22;8206;51.440;6.914;2023-03-19T10:21:53;14.40;99.90
16198;DHT22;8206;51.440;6.914;2023-03-19T10:24:25;14.20;99.90
16198;DHT22;8206;51.440;6.914;2023-03-19T10:26:58;14.20;99.90
16198;DHT22;8206;51.440;6.914;2023-03-19T10:29:26;14.30;99.90
16198;DHT22;8206;51.440;6.914;2023-03-19T10:32:00;14.40;99.90
16198;DHT22;8206;51.440;6.914;2023-03-19T10:34:31;14.40;99.90
16198;DHT22;8206;51.440;6.914;2023-03-19T10:37:02;14.40;99.90
16198;DHT22;8206;51.440;6.914;2023-03-19T10:39:32;14.40;99.90
16198;DHT22;8206;51.440;6.914;2023-03-19T10:42:19;14.30;99.90
16198;DHT22;8206;51.440;6.914;2023-03-19T10:44:49;14.10;99.90
16198;DHT22;8206;51.440;6.914;2023-03-19T10:47:17;13.90;99.90
16198;DHT22;8206;51.440;6.914;2023-03-19T10:49:45;13.80;99.90
16198;DHT22;8206;51.440;6.914;2023-03-19T10:52:20;13.70;99.90
16198;DHT22;8206;51.440;6.914;2023-03-19T10:54:53;13.70;99.90
16198;DHT22;8206;51.440;6.914;2023-03-19T10:57:24;13.80;99.90
16198;DHT22;8206;51.440;6.914;2023-03-19T10:59:51;13.70;99.90
16198;DHT22;8206;51.440;6.914;2023-03-19T11:02:19;13.60;99.90
16198;DHT22;8206;51.440;6.914;2023-03-19T11:04:47;13.30;99.90
16198;DHT22;8206;51.440;6.914;2023-03-19T11:07:19;13.20;99.90
16198;DHT22;8206;51.440;6.914;2023-03-19T11:09:48;13.20;99.90
16198;DHT22;8206;51.440;6.914;2023-03-19T11:12:20;13.20;99.90
16198;DHT22;8206;51.440;6.914;2023-03-19T11:14:50;13.20;99.90
16198;DHT22;8206;51.440;6.914;2023-03-19T11:17:21;13.10;99.90
16198;DHT22;8206;51.440;6.914;2023-03-19T11:19:50;13.10;99.90
16198;DHT22;8206;51.440;6.914;2023-03-19T11:22:22;13.10;99.90
16198;DHT22;8206;51.440;6.914;2023-03-19T11:24:53;13.00;99.90
16198;DHT22;8206;51.440;6.914;2023-03-19T11:27:26;12.80;99.90
16198;DHT22;8206;51.440;6.914;2023-03-19T11:29:54;12.80;99.90
16198;DHT22;8206;51.440;6.914;2023-03-19T11:33:01;12.80;99.90
16198;DHT22;8206;51.440;6.914;2023-03-19T11:35:31;13.00;99.90
16198;DHT22;8206;51.440;6.914;2023-03-19T11:38:03;13.30;99.90
16198;DHT22;8206;51.440;6.914;2023-03-19T11:40:36;13.60;99.90
16198;DHT22;8206;51.440;6.914;2023-03-19T11:43:26;13.80;99.90
16198;DHT22;8206;51.440;6.914;2023-03-19T11:46:00;14.30;99.90
16198;DHT22;8206;51.440;6.914;2023-03-19T11:48:38;14.70;99.90
16198;DHT22;8206;51.440;6.914;2023-03-19T11:51:11;15.10;99.90
16198;DHT22;8206;51.440;6.914;2023-03-19T11:53:53;15.30;99.90
16198;DHT22;8206;51.440;6.914;2023-03-19T11:56:30;15.40;99.90
16198;DHT22;8206;51.440;6.914;2023-03-19T11:59:12;15.70;99.90
16198;DHT22;8206;51.440;6.914;2023-03-19T12:05:04;15.90;99.90
16198;DHT22;8206;51.440;6.914;2023-03-19T12:07:38;15.80;99.90
16198;DHT22;8206;51.440;6.914;2023-03-19T12:10:30;15.90;99.90
16198;DHT22;8206;51.440;6.914;2023-03-19T12:13:06;16.00;99.90
16198;DHT22;8206;51.440;6.914;2023-03-19T12:15:44;16.20;99.90
16198;DHT22;8206;51.440;6.914;2023-03-19T12:18:18;16.30;99.90
16198;DHT22;8206;51.440;6.914;2023-03-19T12:20:55;16.40;99.90
16198;DHT22;8206;51.440;6.914;2023-03-19T12:23:35;16.40;99.90
16198;DHT22;8206;51.440;6.914;2023-03-19T12:26:07;16.50;99.90
16198;DHT22;8206;51.440;6.914;2023-03-19T12:28:37;16.50;99.90
16198;DHT22;8206;51.440;6.914;2023-03-19T12:31:32;16.50;99.90
16198;DHT22;8206;51.440;6.914;2023-03-19T12:34:15;16.50;99.90
16198;DHT22;8206;51.440;6.914;2023-03-19T12:36:49;16.70;99.90
16198;DHT22;8206;51.440;6.914;2023-03-19T12:39:20;16.90;99.90
16198;DHT22;8206;51.440;6.914;2023-03-19T12:41:50;16.60;99.90
16198;DHT22;8206;51.440;6.914;2023-03-19T12:44:20;16.30;99.90
16198;DHT22;8206;51.440;6.914;2023-03-19T12:46:54;15.80;99.90
16198;DHT22;8206;51.440;6.914;2023-03-19T12:49:24;15.80;99.90
16198;DHT22;8206;51.440;6.914;2023-03-19T12:51:58;16.00;99.90
16198;DHT22;8206;51.440;6.914;2023-03-19T12:54:28;16.30;99.90
16198;DHT22;8206;51.440;6.914;2023-03-19T12:57:01;16.60;99.90
16198;DHT22;8206;51.440;6.914;2023-03-19T12:59:34;16.70;99.90
16198;DHT22;8206;51.440;6.914;2023-03-19T13:02:08;16.80;99.90
16198;DHT22;8206;51.440;6.914;2023-03-19T13:04:40;16.80;99.90
16198;DHT22;8206;51.440;6.914;2023-03-19T13:07:17;16.70;99.90
16198;DHT22;8206;51.440;6.914;2023-03-19T13:09:49;16.90;99.90
16198;DHT22;8206;51.440;6.914;2023-03-19T13:12:22;16.90;99.90
16198;DHT22;8206;51.440;6.914;2023-03-19T13:14:55;16.80;99.90
16198;DHT22;8206;51.440;6.914;2023-03-19T13:17:32;16.90;99.90
16198;DHT22;8206;51.440;6.914;2023-03-19T13:20:06;16.70;99.90
16198;DHT22;8206;51.440;6.914;2023-03-19T13:22:40;16.60;99.90
16198;DHT22;8206;51.440;6.914;2023-03-19T13:25:14;16.50;99.90
16198;DHT22;8206;51.440;6.914;2023-03-19T13:27:51;16.30;99.90
16198;DHT22;8206;51.440;6.914;2023-03-19T13:30:20;16.50;99.90
16198;DHT22;8206;51.440;6.914;2023-03-19T13:32:48;16.60;99.90
16198;DHT22;8206;51.440;6.914;2023-03-19T13:35:30;16.70;99.90
16198;DHT22;8206;51.440;6.914;2023-03-19T13:38:01;16.90;99.90
16198;DHT22;8206;51.440;6.914;2023-03-19T13:40:45;17.10;99.90
16198;DHT22;8206;51.440;6.914;2023-03-19T13:43:53;17.10;99.90
16198;DHT22;8206;51.440;6.914;2023-03-19T13:46:44;17.10;99.90
16198;DHT22;8206;51.440;6.914;2023-03-19T13:49:24;16.90;99.90
16198;DHT22;8206;51.440;6.914;2023-03-19T13:51:54;16.70;99.90
16198;DHT22;8206;51.440;6.914;2023-03-19T13:54:35;16.50;99.90
16198;DHT22;8206;51.440;6.914;2023-03-19T13:57:32;16.40;99.90
16198;DHT22;8206;51.440;6.914;2023-03-19T14:03:19;15.80;99.90
16198;DHT22;8206;51.440;6.914;2023-03-19T14:05:47;15.70;99.90
16198;DHT22;8206;51.440;6.914;2023-03-19T14:08:17;15.50;99.90
16198;DHT22;8206;51.440;6.914;2023-03-19T14:10:46;15.50;99.90
16198;DHT22;8206;51.440;6.914;2023-03-19T14:13:21;15.50;99.90
16198;DHT22;8206;51.440;6.914;2023-03-19T14:15:52;15.50;99.90
16198;DHT22;8206;51.440;6.914;2023-03-19T14:18:28;15.60;99.90
16198;DHT22;8206;51.440;6.914;2023-03-19T14:20:57;15.70;99.90
16198;DHT22;8206;51.440;6.914;2023-03-19T14:23:25;15.90;99.90
16198;DHT22;8206;51.440;6.914;2023-03-19T14:26:02;16.00;99.90
16198;DHT22;8206;51.440;6.914;2023-03-19T14:28:37;16.10;99.90
16198;DHT22;8206;51.440;6.914;2023-03-19T14:31:21;16.10;99.90
16198;DHT22;8206;51.440;6.914;2023-03-19T14:33:52;16.50;99.90
16198;DHT22;8206;51.440;6.914;2023-03-19T14:36:22;16.70;99.90
16198;DHT22;8206;51.440;6.914;2023-03-19T14:38:50;16.80;99.90
16198;DHT22;8206;51.440;6.914;2023-03-19T14:41:20;16.90;99.90
16198;DHT22;8206;51.440;6.914;2023-03-19T14:44:24;16.70;99.90
16198;DHT22;8206;51.440;6.914;2023-03-19T14:47:31;16.50;99.90
16198;DHT22;8206;51.440;6.914;2023-03-19T14:50:25;16.30;99.90
16198;DHT22;8206;51.440;6.914;2023-03-19T14:52:58;16.30;99.90
16198;DHT22;8206;51.440;6.914;2023-03-19T14:55:32;16.20;99.90
16198;DHT22;8206;51.440;6.914;2023-03-19T14:58:00;16.10;99.90
16198;DHT22;8206;51.440;6.914;2023-03-19T15:00:27;16.10;99.90
16198;DHT22;8206;51.440;6.914;2023-03-19T15:02:55;16.00;99.90
16198;DHT22;8206;51.440;6.914;2023-03-19T15:05:25;15.90;99.90
16198;DHT22;8206;51.440;6.914;2023-03-19T15:07:54;15.90;99.90
16198;DHT22;8206;51.440;6.914;2023-03-19T15:10:25;15.90;99.90
16198;DHT22;8206;51.440;6.914;2023-03-19T15:13:22;15.90;99.90
16198;DHT22;8206;51.440;6.914;2023-03-19T15:16:11;15.70;99.90
16198;DHT22;8206;51.440;6.914;2023-03-19T15:18:42;15.70;99.90
16198;DHT22;8206;51.440;6.914;2023-03-19T15:21:09;15.50;99.90
16198;DHT22;8206;51.440;6.914;2023-03-19T15:23:38;15.50;99.90
16198;DHT22;8206;51.440;6.914;2023-03-19T15:26:05;15.50;99.90
16198;DHT22;8206;51.440;6.914;2023-03-19T15:28:44;15.50;99.90
16198;DHT22;8206;51.440;6.914;2023-03-19T15:31:13;15.40;99.90
16198;DHT22;8206;51.440;6.914;2023-03-19T15:33:41;15.30;99.90
16198;DHT22;8206;51.440;6.914;2023-03-19T15:36:12;15.30;99.90
16198;DHT22;8206;51.440;6.914;2023-03-19T15:38:44;15.20;99.90
16198;DHT22;8206;51.440;6.914;2023-03-19T15:41:12;15.30;99.90
16198;DHT22;8206;51.440;6.914;2023-03-19T15:43:39;15.10;99.90
16198;DHT22;8206;51.440;6.914;2023-03-19T15:46:06;15.10;99.90
16198;DHT22;8206;51.440;6.914;2023-03-19T15:48:38;15.00;99.90
16198;DHT22;8206;51.440;6.914;2023-03-19T15:51:09;15.10;99.90
16198;DHT22;8206;51.440;6.914;2023-03-19T15:53:38;15.10;99.90
16198;DHT22;8206;51.440;6.914;2023-03-19T15:56:05;15.20;99.90
16198;DHT22;8206;51.440;6.914;2023-03-19T15:58:38;15.10;99.90
16198;DHT22;8206;51.440;6.914;2023-03-19T16:01:06;15.10;99.90
16198;DHT22;8206;51.440;6.914;2023-03-19T16:03:37;15.10;99.90
16198;DHT22;8206;51.440;6.914;2023-03-19T16:06:11;15.10;99.90
16198;DHT22;8206;51.440;6.914;2023-03-19T16:08:45;15.10;99.90
16198;DHT22;8206;51.440;6.914;2023-03-19T16:11:14;15.10;99.90
16198;DHT22;8206;51.440;6.914;2023-03-19T16:13:45;15.00;99.90